Time;durP1;ratioP1;P1;durP2;ratioP2;P2;SDS_P1;SDS_P2;PMS_P1;PMS_P2;Temp;Humidity;BMP_temperature;BMP_pressure;BME280_temperature;BME280_humidity;BME280_pressure;Samples;Min_cycle;Max_cycle;Signal;HPM_P1;HPM_P2
2023/07/28 00:02:06;;;;;;;7.78;7.18;;;;;;;16.97;100.00;100424.91;5029757;28;20021;-74
2023/07/28 00:04:34;;;;;;;8.00;7.38;;;;;;;16.96;100.00;100420.59;5027291;28;20050;-75
2023/07/28 00:07:04;;;;;;;8.23;7.43;;;;;;;16.97;100.00;100419.59;5009314;28;20040;-75
2023/07/28 00:09:33;;;;;;;8.20;7.57;;;;;;;16.96;100.00;100420.59;5024726;28;20397;-75
2023/07/28 00:12:00;;;;;;;7.90;7.30;;;;;;;16.97;100.00;100424.91;5017015;28;20030;-73
2023/07/28 00:14:26;;;;;;;8.07;7.38;;;;;;;16.96;100.00;100415.28;5027914;28;20028;-74
2023/07/28 00:16:55;;;;;;;7.85;7.22;;;;;;;16.96;100.00;100415.28;5028863;28;20029;-74
2023/07/28 00:19:21;;;;;;;13.48;8.18;;;;;;;16.97;100.00;100419.59;5028799;28;20026;-73
2023/07/28 00:21:48;;;;;;;8.80;7.90;;;;;;;16.97;100.00;100422.25;5028788;28;20385;-74
2023/07/28 00:24:13;;;;;;;8.52;7.70;;;;;;;16.97;100.00;100419.59;5008180;28;20493;-74
2023/07/28 00:26:44;;;;;;;8.73;8.02;;;;;;;16.96;100.00;100412.63;5027438;28;20071;-74
2023/07/28 00:29:09;;;;;;;9.02;8.23;;;;;;;16.97;100.00;100415.09;5009566;28;20026;-75
2023/07/28 00:31:35;;;;;;;8.60;7.90;;;;;;;16.98;100.00;100415.94;5022061;28;20036;-75
2023/07/28 00:34:02;;;;;;;8.93;8.23;;;;;;;16.97;100.00;100414.28;5009452;28;20036;-74
2023/07/28 00:36:28;;;;;;;10.13;8.30;;;;;;;16.98;100.00;100410.63;5020936;28;20097;-74
2023/07/28 00:38:53;;;;;;;9.00;8.20;;;;;;;16.99;100.00;100415.75;5028523;28;20033;-74
2023/07/28 00:41:21;;;;;;;8.52;7.72;;;;;;;16.99;100.00;100417.59;5029097;28;20453;-74
2023/07/28 00:43:46;;;;;;;9.10;8.40;;;;;;;16.99;100.00;100417.59;5010725;28;20108;-73
2023/07/28 00:46:12;;;;;;;9.50;8.60;;;;;;;17.01;100.00;100410.28;5010693;28;20116;-74
2023/07/28 00:48:39;;;;;;;10.23;9.32;;;;;;;16.98;100.00;100407.97;5029639;28;20079;-73
2023/07/28 00:51:06;;;;;;;9.43;8.73;;;;;;;16.98;100.00;100416.75;5028422;28;20025;-73
2023/07/28 00:53:32;;;;;;;10.50;9.60;;;;;;;16.99;100.00;100404.31;5029275;28;20116;-74
2023/07/28 00:55:57;;;;;;;10.85;9.90;;;;;;;16.97;100.00;100398.31;5021323;28;20037;-75
2023/07/28 00:58:23;;;;;;;11.55;10.35;;;;;;;16.94;100.00;100398.66;5016205;28;20033;-75
2023/07/28 01:00:48;;;;;;;10.82;9.93;;;;;;;16.91;100.00;100390.03;5021292;28;20482;-75
2023/07/28 01:03:18;;;;;;;11.40;10.30;;;;;;;16.90;100.00;100401.66;5027969;28;20040;-75
2023/07/28 01:06:12;;;;;;;11.50;10.32;;;;;;;16.90;100.00;100409.63;5028546;28;20025;-75
2023/07/28 01:09:05;;;;;;;11.02;9.85;;;;;;;16.91;100.00;100411.28;5027594;28;20033;-73
2023/07/28 01:11:30;;;;;;;;;;;;;;;16.98;100.00;100415.94;5029951;28;20029;-74
2023/07/28 01:13:56;;;;;;;10.70;9.48;;;;;;;16.92;100.00;100412.13;5029270;28;20428;-74
2023/07/28 01:16:22;;;;;;;11.07;10.07;;;;;;;16.94;100.00;100409.28;5023357;28;20113;-73
2023/07/28 01:18:48;;;;;;;10.80;9.90;;;;;;;16.95;100.00;100417.09;5013136;28;20026;-74
2023/07/28 01:21:26;;;;;;;11.77;10.63;;;;;;;16.96;100.00;100420.59;5021129;28;20025;-74
2023/07/28 01:24:07;;;;;;;11.65;10.65;;;;;;;16.95;100.00;100413.59;5014476;28;20036;-74
2023/07/28 01:26:44;;;;;;;11.07;10.10;;;;;;;16.95;100.00;100413.59;5007649;28;20044;-74
2023/07/28 01:29:11;;;;;;;11.68;10.68;;;;;;;16.96;100.00;100417.94;5030720;28;20102;-74
2023/07/28 01:31:37;;;;;;;11.15;10.05;;;;;;;16.98;100.00;100414.09;5032348;28;20045;-75
2023/07/28 01:34:02;;;;;;;11.35;10.25;;;;;;;16.99;100.00;100421.09;5020182;28;20653;-74
2023/07/28 01:36:33;;;;;;;12.43;10.48;;;;;;;17.00;100.00;100424.56;5031795;28;20052;-74
2023/07/28 01:39:02;;;;;;;15.10;11.07;;;;;;;16.99;100.00;100422.91;5032439;28;20378;-74
2023/07/28 01:41:27;;;;;;;11.55;10.38;;;;;;;16.99;100.00;100422.91;5032789;28;20033;-74
2023/07/28 01:43:55;;;;;;;13.27;11.27;;;;;;;16.97;100.00;100422.25;5031482;28;20219;-74
2023/07/28 01:46:21;;;;;;;12.35;11.15;;;;;;;16.98;100.00;100415.94;5031661;28;20047;-74
2023/07/28 01:48:50;;;;;;;11.95;10.75;;;;;;;16.97;100.00;100425.72;5032207;28;20029;-74
2023/07/28 01:51:36;;;;;;;13.18;11.90;;;;;;;16.98;100.00;100421.25;5018765;28;20060;-74
2023/07/28 01:54:01;;;;;;;12.65;11.48;;;;;;;17.01;100.00;100420.91;5013589;28;20952;-74
2023/07/28 01:56:27;;;;;;;13.00;11.80;;;;;;;17.02;100.00;100428.72;5021177;28;20022;-74
2023/07/28 01:58:56;;;;;;;14.70;11.73;;;;;;;17.04;100.00;100426.72;5012417;28;20034;-75
2023/07/28 02:01:21;;;;;;;13.20;11.80;;;;;;;17.04;100.00;100421.41;5012899;28;20030;-75
2023/07/28 02:03:46;;;;;;;15.55;12.30;;;;;;;17.05;100.00;100427.56;5004309;28;20135;-74
2023/07/28 02:06:12;;;;;;;14.05;12.48;;;;;;;17.05;100.00;100425.72;5008607;28;20030;-74
2023/07/28 02:08:42;;;;;;;14.05;12.63;;;;;;;17.05;100.00;100422.25;4997247;28;20026;-74
2023/07/28 02:11:10;;;;;;;15.23;13.57;;;;;;;17.04;100.00;100425.91;5008741;28;20175;-74
2023/07/28 02:13:36;;;;;;;15.23;13.50;;;;;;;17.04;100.00;100418.75;5012236;28;20026;-75
2023/07/28 02:16:01;;;;;;;15.13;13.48;;;;;;;17.05;100.00;100423.06;5004340;28;20026;-74
2023/07/28 02:18:26;;;;;;;15.88;13.73;;;;;;;17.07;100.00;100413.09;5010466;28;20052;-74
2023/07/28 02:20:52;;;;;;;16.48;14.43;;;;;;;17.07;100.00;100420.25;4994169;28;20030;-74
2023/07/28 02:23:19;;;;;;;15.80;14.10;;;;;;;17.07;100.00;100422.91;5008143;28;20513;-74
2023/07/28 02:25:47;;;;;;;18.40;14.57;;;;;;;17.05;100.00;100416.94;4986048;28;20066;-74
2023/07/28 02:28:13;;;;;;;17.02;15.23;;;;;;;17.04;100.00;100421.41;4996926;28;20025;-74
2023/07/28 02:30:38;;;;;;;17.38;14.82;;;;;;;17.05;100.00;100423.06;4994318;28;20084;-75
2023/07/28 02:33:03;;;;;;;15.50;13.95;;;;;;;17.05;100.00;100432.88;5010383;28;20029;-75
2023/07/28 02:35:32;;;;;;;16.50;14.82;;;;;;;17.04;100.00;100426.72;5011527;28;20065;-74
2023/07/28 02:37:57;;;;;;;17.00;15.10;;;;;;;17.04;100.00;100421.41;5010182;28;20102;-74
2023/07/28 02:40:23;;;;;;;16.75;14.95;;;;;;;17.05;100.00;100416.94;5009230;28;20049;-74
2023/07/28 02:42:48;;;;;;;19.15;15.82;;;;;;;17.06;100.00;100418.59;4982670;28;20113;-74
2023/07/28 02:45:13;;;;;;;18.15;16.23;;;;;;;17.06;100.00;100429.22;4974198;28;20522;-74
2023/07/28 02:47:39;;;;;;;20.55;16.17;;;;;;;17.06;100.00;100423.91;4991632;28;20631;-74
2023/07/28 02:50:04;;;;;;;20.70;16.67;;;;;;;17.06;100.00;100419.41;5009935;28;20033;-75
2023/07/28 02:52:30;;;;;;;19.60;16.50;;;;;;;17.07;100.00;100434.38;5011564;28;20478;-75
2023/07/28 02:54:57;;;;;;;21.63;17.35;;;;;;;17.07;100.00;100436.19;5010529;28;20030;-75
2023/07/28 02:57:22;;;;;;;20.95;17.25;;;;;;;17.07;100.00;100438.84;4993007;28;20392;-75
2023/07/28 02:59:48;;;;;;;22.05;18.80;;;;;;;17.06;100.00;100439.84;5005939;28;20025;-74
2023/07/28 03:02:13;;;;;;;25.08;19.05;;;;;;;17.06;100.00;100445.16;5010144;28;20530;-74
2023/07/28 03:04:39;;;;;;;21.83;18.25;;;;;;;17.06;100.00;100437.19;5012148;28;20509;-75
2023/07/28 03:07:05;;;;;;;23.55;18.92;;;;;;;17.06;100.00;100435.38;5010938;28;20040;-75
2023/07/28 03:09:30;;;;;;;26.33;19.08;;;;;;;17.07;100.00;100441.50;5009230;28;20038;-75
2023/07/28 03:11:55;;;;;;;23.40;19.17;;;;;;;17.07;100.00;100438.84;5010787;28;20125;-75
2023/07/28 03:14:21;;;;;;;23.63;18.13;;;;;;;17.08;100.00;100437.84;4992893;28;20462;-75
2023/07/28 03:16:46;;;;;;;26.38;18.70;;;;;;;17.09;100.00;100439.53;5004583;28;20542;-74
2023/07/28 03:19:12;;;;;;;26.42;19.05;;;;;;;17.09;100.00;100443.00;4973766;28;20383;-74
2023/07/28 03:21:40;;;;;;;23.90;19.27;;;;;;;17.08;100.00;100443.19;5001503;28;20395;-75
2023/07/28 03:24:06;;;;;;;25.58;18.50;;;;;;;17.08;100.00;100444.00;4992136;28;20026;-75
2023/07/28 03:26:31;;;;;;;27.77;19.45;;;;;;;17.07;100.00;100447.66;4993165;28;20028;-75
2023/07/28 03:28:56;;;;;;;27.08;18.83;;;;;;;17.07;100.00;100450.31;4997634;28;20590;-75
2023/07/28 03:31:22;;;;;;;25.98;19.52;;;;;;;17.06;100.00;100455.81;4991314;28;20062;-76
2023/07/28 03:33:47;;;;;;;27.27;19.10;;;;;;;17.07;100.00;100450.31;5005053;28;20026;-75
2023/07/28 03:36:15;;;;;;;24.63;18.10;;;;;;;17.06;100.00;100458.47;4989783;28;20534;-75
2023/07/28 03:38:44;;;;;;;26.73;19.73;;;;;;;17.07;100.00;100452.16;4994403;28;20066;-76
2023/07/28 03:41:09;;;;;;;30.25;19.90;;;;;;;17.07;100.00;100455.63;4973280;28;20113;-75
2023/07/28 03:43:35;;;;;;;24.75;19.00;;;;;;;17.08;100.00;100459.13;5005722;28;20128;-75
2023/07/28 03:46:00;;;;;;;31.35;20.33;;;;;;;17.08;100.00;100469.75;5002404;28;20029;-75
2023/07/28 03:48:26;;;;;;;27.85;20.45;;;;;;;17.09;100.00;100476.75;5009410;28;20036;-75
2023/07/28 03:50:51;;;;;;;26.80;19.27;;;;;;;17.09;100.00;100476.75;5007347;28;20069;-75
2023/07/28 03:53:17;;;;;;;27.63;19.85;;;;;;;17.09;100.00;100479.41;4993142;28;20065;-75
2023/07/28 03:55:44;;;;;;;26.63;20.85;;;;;;;17.08;100.00;100483.06;4995159;28;20486;-75
2023/07/28 03:58:10;;;;;;;26.02;20.17;;;;;;;17.09;100.00;100482.06;5007631;28;20080;-75
2023/07/28 04:00:35;;;;;;;24.38;19.23;;;;;;;17.09;100.00;100480.22;5010562;28;20030;-75
2023/07/28 04:03:00;;;;;;;26.73;18.92;;;;;;;17.11;100.00;100477.41;5009379;28;20306;-75
2023/07/28 04:05:26;;;;;;;29.73;19.55;;;;;;;17.10;100.00;100483.72;5010422;28;20025;-75
2023/07/28 04:07:51;;;;;;;25.45;18.60;;;;;;;17.09;100.00;100476.75;5010553;28;20108;-74
2023/07/28 04:10:20;;;;;;;24.60;19.02;;;;;;;17.09;100.00;100485.53;5001334;28;20027;-75
2023/07/28 04:12:45;;;;;;;25.77;19.13;;;;;;;17.09;100.00;100480.22;4990826;28;20026;-75
2023/07/28 04:15:11;;;;;;;23.15;17.50;;;;;;;17.10;100.00;100481.06;4973277;28;20030;-75
2023/07/28 04:17:36;;;;;;;26.83;19.15;;;;;;;17.08;100.00;100475.91;5010875;28;20037;-75
2023/07/28 04:20:01;;;;;;;25.83;19.08;;;;;;;17.08;100.00;100470.59;5009151;28;20609;-75
2023/07/28 04:22:29;;;;;;;24.00;18.10;;;;;;;17.10;100.00;100478.41;4991263;28;20153;-75
2023/07/28 04:24:55;;;;;;;21.85;18.15;;;;;;;17.08;100.00;100470.59;5009441;28;20026;-76
2023/07/28 04:27:20;;;;;;;27.88;18.17;;;;;;;17.09;100.00;100474.09;4995804;28;20117;-75
2023/07/28 04:29:45;;;;;;;26.27;18.30;;;;;;;17.09;100.00;100476.75;5008288;28;20405;-75
2023/07/28 04:32:11;;;;;;;25.00;18.50;;;;;;;17.11;100.00;100474.75;5009393;28;20367;-76
2023/07/28 04:34:39;;;;;;;25.67;18.27;;;;;;;17.09;100.00;100482.88;5010193;28;20032;-76
2023/07/28 04:37:05;;;;;;;20.55;17.30;;;;;;;17.10;100.00;100479.22;5009170;28;20026;-75
2023/07/28 04:39:30;;;;;;;21.48;17.27;;;;;;;17.12;100.00;100481.72;5009325;28;20053;-75
2023/07/28 04:41:56;;;;;;;24.63;18.10;;;;;;;17.12;100.00;100482.56;5009502;28;20034;-75
2023/07/28 04:44:21;;;;;;;24.50;17.83;;;;;;;17.13;100.00;100470.94;4994097;28;20033;-75
2023/07/28 04:46:47;;;;;;;23.10;17.60;;;;;;;17.13;100.00;100473.59;4989245;28;20039;-75
2023/07/28 04:49:13;;;;;;;24.95;18.55;;;;;;;17.14;100.00;100477.06;4993855;28;20018;-75
2023/07/28 04:51:39;;;;;;;24.95;18.58;;;;;;;17.14;100.00;100474.41;5009435;28;20036;-75
2023/07/28 04:54:04;;;;;;;24.63;18.58;;;;;;;17.13;100.00;100472.75;5009340;28;20018;-75
2023/07/28 04:56:29;;;;;;;26.00;18.90;;;;;;;17.13;100.00;100476.25;5004428;28;20168;-75
2023/07/28 04:58:55;;;;;;;26.10;19.48;;;;;;;17.14;100.00;100483.22;5008986;28;20037;-75
2023/07/28 05:01:20;;;;;;;24.17;18.80;;;;;;;17.14;100.00;100479.72;5005158;28;20037;-76
2023/07/28 05:03:46;;;;;;;27.33;20.23;;;;;;;17.16;100.00;100485.72;4999098;28;20045;-75
2023/07/28 05:06:11;;;;;;;31.88;19.58;;;;;;;17.16;100.00;100475.06;5028306;28;20017;-75
2023/07/28 05:08:36;;;;;;;25.88;20.08;;;;;;;17.16;100.00;100486.53;5029833;28;20092;-75
2023/07/28 05:11:02;;;;;;;26.98;19.55;;;;;;;17.17;100.00;100487.38;5029820;28;20029;-75
2023/07/28 05:13:27;;;;;;;28.35;20.08;;;;;;;17.18;100.00;100494.34;5010861;28;20037;-75
2023/07/28 05:15:52;;;;;;;29.30;19.77;;;;;;;17.19;100.00;100496.00;5029313;28;20025;-75
2023/07/28 05:18:18;;;;;;;31.17;20.23;;;;;;;17.21;100.00;100491.38;5015872;28;20490;-75
2023/07/28 05:20:43;;;;;;;28.23;20.58;;;;;;;17.24;100.00;100496.38;4991494;28;20090;-75
2023/07/28 05:23:11;;;;;;;30.10;19.58;;;;;;;17.24;100.00;100504.34;5016594;28;20494;-75
2023/07/28 05:25:37;;;;;;;25.38;19.77;;;;;;;17.25;100.00;100499.88;5028983;28;20094;-75
2023/07/28 05:28:02;;;;;;;26.95;19.95;;;;;;;17.27;100.00;100506.69;5023127;28;20388;-75
2023/07/28 05:30:27;;;;;;;24.42;19.42;;;;;;;17.28;100.00;100518.16;5009505;28;20030;-75
2023/07/28 05:32:56;;;;;;;29.83;21.80;;;;;;;17.28;100.00;100518.16;5009200;28;20033;-75
2023/07/28 05:35:21;;;;;;;26.20;21.48;;;;;;;17.32;100.00;100515.00;5019946;28;20029;-75
2023/07/28 05:37:46;;;;;;;27.30;22.58;;;;;;;17.35;100.00;100519.16;5009563;28;20022;-76
2023/07/28 05:40:12;;;;;;;30.90;23.75;;;;;;;17.37;100.00;100520.66;5009152;28;20029;-75
2023/07/28 05:42:38;;;;;;;29.50;23.55;;;;;;;17.40;100.00;100520.31;5009217;28;20034;-75
2023/07/28 05:45:03;;;;;;;33.90;26.65;;;;;;;17.40;100.00;100519.47;4991547;28;20111;-75
2023/07/28 05:47:29;;;;;;;35.05;27.70;;;;;;;17.39;100.00;100523.97;5008919;28;20030;-75
2023/07/28 05:49:55;;;;;;;35.13;28.70;;;;;;;17.40;100.00;100528.28;5016692;28;20032;-75
2023/07/28 05:52:22;;;;;;;40.33;30.48;;;;;;;17.41;100.00;100531.78;5022750;28;20033;-74
2023/07/28 05:54:48;;;;;;;41.33;32.85;;;;;;;17.45;100.00;100531.28;5021904;28;20523;-74
2023/07/28 05:57:16;;;;;;;45.92;33.30;;;;;;;17.49;100.00;100537.09;4996737;28;20029;-75
2023/07/28 05:59:44;;;;;;;44.45;35.33;;;;;;;17.46;100.00;100538.25;5032284;28;20033;-75
2023/07/28 06:02:09;;;;;;;47.40;36.08;;;;;;;17.49;100.00;100535.28;5030398;28;20029;-75
2023/07/28 06:04:35;;;;;;;46.05;35.78;;;;;;;17.49;100.00;100532.63;5016579;28;20049;-74
2023/07/28 06:07:00;;;;;;;45.72;35.47;;;;;;;17.52;100.00;100532.28;5011981;28;20022;-75
2023/07/28 06:09:26;;;;;;;49.53;37.92;;;;;;;17.52;100.00;100534.94;4993866;28;20068;-75
2023/07/28 06:11:52;;;;;;;48.35;36.03;;;;;;;17.54;100.00;100538.25;4996672;28;20115;-75
2023/07/28 06:14:17;;;;;;;50.88;36.95;;;;;;;17.54;100.00;100538.25;5011898;28;20022;-75
2023/07/28 06:16:43;;;;;;;46.75;34.20;;;;;;;17.52;100.00;100532.28;5011752;28;20032;-74
2023/07/28 06:19:08;;;;;;;51.15;36.05;;;;;;;17.54;100.00;100530.28;5012147;28;20022;-74
2023/07/28 06:21:34;;;;;;;45.30;32.65;;;;;;;17.58;100.00;100528.13;5012429;28;20037;-75
2023/07/28 06:23:59;;;;;;;44.58;32.95;;;;;;;17.60;100.00;100530.59;5009407;28;20026;-75
2023/07/28 06:26:25;;;;;;;43.08;30.45;;;;;;;17.60;100.00;100531.44;5009928;28;20022;-75
2023/07/28 06:28:50;;;;;;;47.83;30.60;;;;;;;17.63;100.00;100543.63;4982307;28;20038;-75
2023/07/28 06:31:16;;;;;;;40.38;28.55;;;;;;;17.64;100.00;100538.13;5005539;28;20481;-75
2023/07/28 06:33:44;;;;;;;36.67;27.17;;;;;;;17.64;100.00;100545.28;5007906;28;20406;-75
2023/07/28 06:36:10;;;;;;;33.45;25.38;;;;;;;17.64;100.00;100540.78;5011889;28;20029;-75
2023/07/28 06:38:35;;;;;;;34.22;25.80;;;;;;;17.69;100.00;100548.28;4995234;28;20025;-75
2023/07/28 06:41:01;;;;;;;37.10;24.83;;;;;;;17.75;100.00;100548.44;4993727;28;20327;-76
2023/07/28 06:43:26;;;;;;;33.67;23.17;;;;;;;17.77;100.00;100543.78;5011307;28;20045;-75
2023/07/28 06:45:53;;;;;;;33.60;23.00;;;;;;;17.78;100.00;100552.59;5010662;28;20505;-75
2023/07/28 06:48:18;;;;;;;30.13;21.48;;;;;;;17.82;100.00;100553.94;5010309;28;20437;-75
2023/07/28 06:50:44;;;;;;;29.90;21.00;;;;;;;17.83;100.00;100560.91;5011736;28;20030;-76
2023/07/28 06:53:12;;;;;;;29.10;21.25;;;;;;;17.81;100.00;100562.91;5009188;28;20421;-75
2023/07/28 06:55:39;;;;;;;34.08;21.30;;;;;;;17.84;100.00;100557.25;5009234;28;20536;-75
2023/07/28 06:58:10;;;;;;;30.60;20.88;;;;;;;17.86;100.00;100560.59;5008657;28;20092;-75
2023/07/28 07:00:35;;;;;;;26.63;19.98;;;;;;;17.88;100.00;100566.56;5009703;28;20040;-77
2023/07/28 07:03:01;;;;;;;24.65;18.98;;;;;;;17.88;100.00;100566.56;5012842;28;20117;-76
2023/07/28 07:05:26;;;;;;;27.75;19.52;;;;;;;17.88;100.00;100568.41;5026890;28;20836;-77
2023/07/28 07:07:58;;;;;;;24.95;18.50;;;;;;;17.89;100.00;100572.72;5027416;28;20033;-77
2023/07/28 07:10:23;;;;;;;23.95;18.67;;;;;;;17.92;100.00;100570.56;5027651;28;20430;-77
2023/07/28 07:12:49;;;;;;;25.80;17.60;;;;;;;17.96;100.00;100574.53;5027848;28;20492;-77
2023/07/28 07:15:15;;;;;;;25.25;17.95;;;;;;;18.00;100.00;100573.19;5028913;28;20067;-77
2023/07/28 07:17:43;;;;;;;23.50;17.70;;;;;;;18.05;100.00;100578.06;5030447;28;20029;-77
2023/07/28 07:20:10;;;;;;;22.25;17.05;;;;;;;18.09;100.00;100585.53;5029642;28;20029;-77
2023/07/28 07:22:36;;;;;;;22.73;16.33;;;;;;;18.10;100.00;100579.19;5012293;28;20123;-76
2023/07/28 07:25:03;;;;;;;22.45;15.60;;;;;;;18.14;100.00;100585.84;5030147;28;20033;-74
2023/07/28 07:27:29;;;;;;;19.67;15.05;;;;;;;18.18;100.00;100589.00;5027695;28;20025;-76
2023/07/28 07:29:57;;;;;;;18.40;13.73;;;;;;;18.20;100.00;100581.69;5023752;28;20029;-75
2023/07/28 07:32:22;;;;;;;17.70;13.55;;;;;;;18.20;100.00;100583.50;5028863;28;20473;-75
2023/07/28 07:34:48;;;;;;;16.58;13.55;;;;;;;18.22;100.00;100587.66;5011921;28;20044;-74
2023/07/28 07:37:13;;;;;;;17.13;12.73;;;;;;;18.21;100.00;100591.34;5029188;28;20052;-75
2023/07/28 07:39:41;;;;;;;15.93;12.57;;;;;;;18.23;100.00;100580.50;5007420;28;20060;-75
2023/07/28 07:42:10;;;;;;;15.45;11.60;;;;;;;18.23;100.00;100599.97;5011001;28;20612;-75
2023/07/28 07:44:35;;;;;;;13.30;11.77;;;;;;;18.30;100.00;100590.31;5008468;28;20026;-76
2023/07/28 07:47:01;;;;;;;12.02;10.55;;;;;;;18.37;100.00;100593.13;5010911;28;20254;-76
2023/07/28 07:49:27;;;;;;;13.90;10.30;;;;;;;18.43;100.00;100589.78;5017299;28;20148;-76
2023/07/28 07:51:52;;;;;;;15.88;11.00;;;;;;;18.43;100.00;100595.13;5030609;28;20065;-75
2023/07/28 07:54:18;;;;;;;13.32;11.55;;;;;;;18.46;100.00;100598.28;5029971;28;20065;-76
2023/07/28 07:56:44;;;;;;;12.68;10.98;;;;;;;18.48;100.00;100590.13;5009138;28;20026;-75
2023/07/28 07:59:10;;;;;;;11.95;10.27;;;;;;;18.52;100.00;100593.25;5027804;28;20032;-75
2023/07/28 08:01:35;;;;;;;11.05;9.95;;;;;;;18.51;100.00;100599.59;5030713;28;20104;-75
2023/07/28 08:04:09;;;;;;;10.65;9.55;;;;;;;18.55;100.00;100600.91;5039614;28;20882;-76
2023/07/28 08:06:35;;;;;;;11.18;9.20;;;;;;;18.59;100.00;100597.72;5031463;28;20029;-76
2023/07/28 08:09:02;;;;;;;12.40;10.23;;;;;;;18.60;100.00;100601.22;5012017;28;20477;-76
2023/07/28 08:11:42;;;;;;;17.13;12.25;;;;;;;18.63;100.00;100604.41;5010979;28;20400;-76
2023/07/28 08:14:08;;;;;;;16.92;15.27;;;;;;;18.62;100.00;100610.75;5045127;28;20392;-76
2023/07/28 08:16:33;;;;;;;15.07;13.55;;;;;;;18.65;100.00;100609.56;5011256;28;20025;-76
2023/07/28 08:18:59;;;;;;;12.85;10.88;;;;;;;18.67;100.00;100612.91;5029717;28;20363;-77
2023/07/28 08:21:26;;;;;;;10.95;9.95;;;;;;;18.70;100.00;100613.38;5010729;28;20044;-76
2023/07/28 08:23:52;;;;;;;11.65;8.63;;;;;;;18.72;100.00;100616.69;5014189;28;20377;-76
2023/07/28 08:26:18;;;;;;;9.32;8.50;;;;;;;18.71;100.00;100615.03;5029353;28;20022;-76
2023/07/28 08:28:46;;;;;;;8.82;8.02;;;;;;;18.73;100.00;100621.03;5014059;28;20503;-76
2023/07/28 08:31:12;;;;;;;8.73;7.88;;;;;;;18.83;100.00;100617.34;5028907;28;20497;-76
2023/07/28 08:33:37;;;;;;;8.98;8.15;;;;;;;18.95;100.00;100616.78;5030327;28;20029;-75
2023/07/28 08:36:03;;;;;;;8.05;7.35;;;;;;;19.05;100.00;100619.25;5030000;28;20025;-76
2023/07/28 08:38:29;;;;;;;6.85;6.22;;;;;;;19.21;100.00;100626.31;5031605;28;20577;-77
2023/07/28 08:40:58;;;;;;;6.90;6.30;;;;;;;19.31;100.00;100627.78;5029677;28;20029;-76
2023/07/28 08:43:23;;;;;;;6.97;6.38;;;;;;;19.39;100.00;100614.38;5029682;28;20492;-75
2023/07/28 08:45:49;;;;;;;8.82;5.40;;;;;;;19.55;100.00;100616.16;5001757;28;20029;-76
2023/07/28 08:48:15;;;;;;;6.05;5.43;;;;;;;19.67;100.00;100621.94;5022575;28;20029;-77
2023/07/28 08:50:43;;;;;;;7.97;6.05;;;;;;;19.73;100.00;100628.38;5011859;28;20025;-76
2023/07/28 08:53:09;;;;;;;6.95;5.40;;;;;;;19.78;100.00;100623.34;5022368;28;20026;-75
2023/07/28 08:55:34;;;;;;;5.70;5.30;;;;;;;19.79;100.00;100628.50;5031752;28;20036;-76
2023/07/28 08:58:18;;;;;;;5.90;5.40;;;;;;;19.90;100.00;100633.41;5027196;28;20370;-76
2023/07/28 09:00:48;;;;;;;5.50;5.10;;;;;;;20.03;100.00;100622.97;5008749;28;20068;-77
2023/07/28 09:03:13;;;;;;;5.60;5.10;;;;;;;20.17;100.00;100626.69;5008432;28;20488;-76
2023/07/28 09:05:40;;;;;;;7.28;5.38;;;;;;;20.50;100.00;100631.75;5043651;28;20025;-77
2023/07/28 09:08:07;;;;;;;8.18;5.63;;;;;;;20.80;100.00;100629.88;5021243;28;20091;-76
2023/07/28 09:10:48;;;;;;;6.97;6.35;;;;;;;20.88;100.00;100638.66;5001621;28;20082;-76
2023/07/28 09:13:15;;;;;;;7.00;6.30;;;;;;;21.17;100.00;100634.25;5032757;28;20025;-77
2023/07/28 09:15:41;;;;;;;6.88;6.15;;;;;;;21.47;100.00;100632.38;5049572;28;20359;-76
2023/07/28 09:18:11;;;;;;;7.13;5.97;;;;;;;21.54;100.00;100635.97;5020753;28;20087;-77
2023/07/28 09:20:39;;;;;;;6.38;5.70;;;;;;;21.67;100.00;100637.97;5022034;28;20116;-76
2023/07/28 09:23:05;;;;;;;6.18;5.57;;;;;;;21.75;100.00;100646.69;5035724;28;20113;-77
2023/07/28 09:25:32;;;;;;;7.32;5.75;;;;;;;21.93;100.00;100643.56;5015552;28;20389;-76
2023/07/28 09:27:57;;;;;;;6.75;6.15;;;;;;;21.99;100.00;100634.75;5037071;28;20049;-76
2023/07/28 09:30:25;;;;;;;6.60;6.10;;;;;;;22.06;100.00;100643.72;5027565;28;20071;-77
2023/07/28 09:32:53;;;;;;;6.80;6.15;;;;;;;22.05;98.99;100643.91;5040593;28;20116;-76
2023/07/28 09:35:20;;;;;;;6.43;5.95;;;;;;;22.00;100.00;100639.06;5038089;28;20048;-77
2023/07/28 09:37:48;;;;;;;5.47;5.07;;;;;;;22.08;98.93;100636.31;5049410;28;20033;-77
2023/07/28 09:40:16;;;;;;;5.60;5.10;;;;;;;22.05;97.04;100625.16;5040359;28;20059;-77
2023/07/28 09:42:49;;;;;;;5.50;5.10;;;;;;;22.12;97.93;100647.47;5009299;28;20450;-76
2023/07/28 09:45:16;;;;;;;5.32;4.82;;;;;;;22.29;98.74;100640.78;5033367;28;20033;-76
2023/07/28 09:47:46;;;;;;;5.75;5.35;;;;;;;22.42;96.52;100648.97;5043011;28;20033;-76
2023/07/28 09:50:15;;;;;;;6.22;5.63;;;;;;;22.38;95.25;100644.97;5026651;28;20031;-76
2023/07/28 09:52:46;;;;;;;4.78;4.47;;;;;;;22.29;95.82;100648.84;5037155;28;20040;-76
2023/07/28 09:55:13;;;;;;;4.50;4.20;;;;;;;22.19;98.97;100643.00;5027507;28;20029;-76
2023/07/28 09:57:51;;;;;;;4.90;4.60;;;;;;;22.22;99.46;100645.28;5009937;28;20026;-76
2023/07/28 10:00:18;;;;;;;3.53;3.05;;;;;;;22.09;95.06;100655.91;5042722;28;20104;-76
2023/07/28 10:02:44;;;;;;;3.72;3.45;;;;;;;22.09;99.04;100647.88;5048286;28;20452;-76
2023/07/28 10:05:10;;;;;;;4.03;3.08;;;;;;;22.23;95.58;100649.63;5049215;28;20056;-76
2023/07/28 10:07:40;;;;;;;4.90;3.30;;;;;;;22.05;94.14;100651.97;5052370;28;20435;-77
2023/07/28 10:10:11;;;;;;;3.78;3.28;;;;;;;21.97;96.31;100660.91;5042895;28;20024;-76
2023/07/28 10:12:46;;;;;;;3.72;3.40;;;;;;;21.93;98.41;100659.63;5039375;28;20020;-76
2023/07/28 10:15:20;;;;;;;3.85;3.55;;;;;;;21.99;98.93;100660.72;5007411;28;20540;-77
2023/07/28 10:17:49;;;;;;;3.92;3.63;;;;;;;22.06;97.04;100648.25;5008722;28;20025;-76
2023/07/28 10:20:32;;;;;;;3.78;3.47;;;;;;;22.22;96.06;100652.50;5029644;28;20032;-75
2023/07/28 10:23:03;;;;;;;;;;;;;;;22.46;100.00;100660.94;5031038;28;20029;-76
2023/07/28 10:25:33;;;;;;;4.07;3.28;;;;;;;22.46;93.15;100663.63;5029615;28;20377;-76
2023/07/28 10:27:58;;;;;;;3.88;3.28;;;;;;;22.54;92.93;100651.09;5029071;28;20052;-76
2023/07/28 10:30:24;;;;;;;4.30;3.17;;;;;;;22.58;90.82;100657.72;5022661;28;20604;-76
2023/07/28 10:32:50;;;;;;;3.28;2.88;;;;;;;22.69;90.71;100655.31;5030503;28;20474;-76
2023/07/28 10:35:21;;;;;;;2.50;2.30;;;;;;;22.78;89.10;100658.66;5033270;28;20381;-75
2023/07/28 10:37:47;;;;;;;2.17;1.75;;;;;;;22.72;85.40;100657.59;5051200;28;20031;-76
2023/07/28 10:40:24;;;;;;;2.00;1.80;;;;;;;22.80;88.17;100653.91;5051433;28;20025;-76
2023/07/28 10:42:58;;;;;;;1.63;1.52;;;;;;;22.81;86.10;100656.47;5020319;28;20033;-76
2023/07/28 10:45:28;;;;;;;2.15;1.95;;;;;;;22.83;85.40;100656.25;5042909;28;20404;-76
2023/07/28 10:47:55;;;;;;;3.70;2.10;;;;;;;22.76;86.73;100649.97;5027346;28;20489;-77
2023/07/28 10:50:22;;;;;;;2.75;2.50;;;;;;;22.79;84.42;100652.25;5027674;28;20036;-77
2023/07/28 10:52:48;;;;;;;4.13;2.20;;;;;;;23.09;85.94;100645.63;5032274;28;20048;-78
2023/07/28 10:55:20;;;;;;;2.40;2.30;;;;;;;23.24;85.54;100642.00;5050222;28;20060;-76
2023/07/28 10:57:46;;;;;;;3.88;2.30;;;;;;;23.43;84.33;100638.53;5034005;28;20066;-76
2023/07/28 11:00:14;;;;;;;3.13;2.30;;;;;;;23.59;84.49;100640.88;5050864;28;20025;-76
2023/07/28 11:02:48;;;;;;;2.38;2.17;;;;;;;23.68;84.55;100645.03;5048349;28;20060;-76
2023/07/28 11:05:27;;;;;;;2.25;2.00;;;;;;;23.86;87.36;100643.59;5022344;28;20044;-76
2023/07/28 11:07:58;;;;;;;2.78;2.10;;;;;;;24.31;82.21;100634.75;5017964;28;20029;-77
2023/07/28 11:10:24;;;;;;;4.13;1.50;;;;;;;24.57;81.09;100638.44;5044144;28;20025;-76